createdAt,value
2018-07-07T00:00:49.851Z,0.00
2018-07-07T00:01:50.096Z,0.00
2018-07-07T00:02:50.335Z,0.00
2018-07-07T00:03:50.575Z,0.00
2018-07-07T00:04:50.814Z,0.00
2018-07-07T00:05:51.055Z,0.00
2018-07-07T00:06:51.294Z,0.00
2018-07-07T00:07:51.539Z,0.00
2018-07-07T00:08:51.775Z,0.00
2018-07-07T00:09:52.016Z,0.00
2018-07-07T00:10:52.256Z,0.00
2018-07-07T00:11:52.496Z,0.00
2018-07-07T00:12:52.739Z,0.00
2018-07-07T00:13:52.978Z,0.00
2018-07-07T00:14:53.218Z,0.00
2018-07-07T00:15:53.457Z,0.00
2018-07-07T00:16:53.699Z,0.00
2018-07-07T00:17:53.941Z,0.00
2018-07-07T00:18:54.181Z,0.00
2018-07-07T00:19:54.420Z,0.00
2018-07-07T00:20:54.661Z,0.00
2018-07-07T00:21:54.901Z,0.00
2018-07-07T00:22:55.142Z,0.00
2018-07-07T00:23:55.382Z,0.00
2018-07-07T00:24:55.623Z,0.00
2018-07-07T00:25:55.863Z,0.00
2018-07-07T00:26:56.105Z,0.00
2018-07-07T00:27:56.346Z,0.00
2018-07-07T00:28:56.586Z,0.00
2018-07-07T00:29:56.826Z,0.00
2018-07-07T00:30:57.069Z,0.00
2018-07-07T00:31:57.310Z,0.00
2018-07-07T00:32:57.550Z,0.00
2018-07-07T00:33:57.789Z,0.00
2018-07-07T00:34:58.029Z,0.00
2018-07-07T00:35:58.270Z,0.00
2018-07-07T00:36:58.510Z,0.00
2018-07-07T00:37:58.749Z,0.00
2018-07-07T00:38:58.989Z,0.00
2018-07-07T00:39:59.229Z,0.00
2018-07-07T00:40:59.470Z,0.00
2018-07-07T00:41:59.711Z,0.00
2018-07-07T00:42:59.951Z,0.00
2018-07-07T00:44:00.195Z,0.00
2018-07-07T00:45:00.433Z,0.00
2018-07-07T00:46:00.673Z,0.00
2018-07-07T00:47:00.913Z,0.00
2018-07-07T00:48:01.154Z,0.00
2018-07-07T00:49:01.391Z,0.00
2018-07-07T00:50:01.636Z,0.00
2018-07-07T00:51:01.874Z,0.00
2018-07-07T00:52:02.115Z,0.00
2018-07-07T00:53:02.357Z,0.00
2018-07-07T00:54:02.597Z,0.00
2018-07-07T00:55:02.840Z,0.00
2018-07-07T00:56:03.073Z,0.00
2018-07-07T00:57:03.316Z,0.00
2018-07-07T00:58:03.555Z,0.00
2018-07-07T00:59:03.794Z,0.00
2018-07-07T01:00:04.038Z,0.00
2018-07-07T01:01:04.274Z,0.00
2018-07-07T01:02:04.515Z,0.00
2018-07-07T01:03:04.755Z,0.00
2018-07-07T01:04:04.995Z,0.00
2018-07-07T01:05:05.235Z,0.00
2018-07-07T01:06:05.474Z,0.00
2018-07-07T01:07:05.713Z,0.00
2018-07-07T01:08:05.956Z,0.00
2018-07-07T01:09:06.194Z,0.00
2018-07-07T01:10:06.435Z,0.00
2018-07-07T01:11:06.676Z,0.00
2018-07-07T01:12:06.917Z,0.00
2018-07-07T01:13:07.159Z,0.00
2018-07-07T01:14:07.398Z,0.00
2018-07-07T01:15:07.638Z,0.00
2018-07-07T01:16:07.878Z,0.00
2018-07-07T01:17:08.120Z,0.00
2018-07-07T01:18:08.359Z,0.00
2018-07-07T01:19:08.599Z,0.00
2018-07-07T01:20:08.840Z,0.00
2018-07-07T01:21:09.081Z,0.00
2018-07-07T01:22:09.322Z,0.00
2018-07-07T01:23:09.562Z,0.00
2018-07-07T01:24:09.805Z,0.00
2018-07-07T01:25:10.043Z,0.00
2018-07-07T01:26:10.284Z,0.00
2018-07-07T01:27:10.525Z,0.00
2018-07-07T01:28:10.765Z,0.00
2018-07-07T01:29:11.008Z,0.00
2018-07-07T01:30:11.248Z,0.00
2018-07-07T01:31:11.490Z,0.00
2018-07-07T01:32:11.728Z,0.00
2018-07-07T01:33:11.967Z,0.00
2018-07-07T01:34:12.206Z,0.00
2018-07-07T01:35:12.446Z,0.00
2018-07-07T01:36:12.687Z,0.00
2018-07-07T01:37:12.925Z,0.00
2018-07-07T01:38:13.168Z,0.00
2018-07-07T01:39:13.408Z,0.00
2018-07-07T01:40:13.645Z,0.00
2018-07-07T01:41:13.887Z,0.00
2018-07-07T01:42:14.126Z,0.00
2018-07-07T01:43:14.366Z,0.00
2018-07-07T01:44:14.605Z,0.00
2018-07-07T01:45:14.846Z,0.00
2018-07-07T01:46:15.086Z,0.00
2018-07-07T01:47:15.326Z,0.00
2018-07-07T01:48:15.565Z,0.00
2018-07-07T01:49:15.806Z,0.00
2018-07-07T01:50:16.046Z,0.00
2018-07-07T01:51:16.286Z,0.00
2018-07-07T01:52:16.525Z,0.00
2018-07-07T01:53:16.765Z,0.00
2018-07-07T01:54:17.006Z,0.00
2018-07-07T01:55:17.246Z,0.00
2018-07-07T01:56:17.489Z,0.00
2018-07-07T01:57:17.725Z,0.00
2018-07-07T01:58:17.965Z,0.00
2018-07-07T01:59:18.204Z,0.00
2018-07-07T02:00:18.445Z,0.00
2018-07-07T02:01:18.684Z,0.00
2018-07-07T02:02:18.924Z,0.00
2018-07-07T02:03:19.162Z,0.00
2018-07-07T02:04:19.405Z,0.00
2018-07-07T02:05:19.643Z,0.00
2018-07-07T02:06:19.883Z,0.00
2018-07-07T02:07:20.123Z,0.00
2018-07-07T02:08:20.363Z,0.00
2018-07-07T02:09:20.608Z,0.00
2018-07-07T02:10:20.892Z,0.00
2018-07-07T02:11:21.084Z,0.00
2018-07-07T02:12:21.324Z,0.00
2018-07-07T02:13:21.564Z,0.00
2018-07-07T02:14:21.804Z,0.00
2018-07-07T02:15:22.044Z,0.00
2018-07-07T02:16:22.282Z,0.00
2018-07-07T02:17:22.524Z,0.00
2018-07-07T02:18:22.764Z,0.00
2018-07-07T02:19:23.003Z,0.00
2018-07-07T02:20:23.243Z,0.00
2018-07-07T02:21:23.482Z,0.00
2018-07-07T02:22:23.724Z,0.00
2018-07-07T02:23:23.963Z,0.00
2018-07-07T02:24:24.203Z,0.00
2018-07-07T02:25:24.441Z,0.00
2018-07-07T02:26:24.682Z,0.00
2018-07-07T02:27:24.921Z,0.00
2018-07-07T02:28:25.166Z,0.00
2018-07-07T02:29:25.405Z,0.00
2018-07-07T02:30:25.642Z,0.00
2018-07-07T02:31:25.880Z,0.00
2018-07-07T02:32:26.119Z,0.00
2018-07-07T02:33:26.359Z,4.00
2018-07-07T02:34:26.600Z,4.00
2018-07-07T02:35:26.840Z,0.00
2018-07-07T02:36:27.080Z,0.00
2018-07-07T02:37:27.319Z,4.00
2018-07-07T02:38:27.559Z,4.00
2018-07-07T02:39:27.798Z,4.00
2018-07-07T02:40:28.037Z,4.00
2018-07-07T02:41:28.277Z,8.00
2018-07-07T02:42:28.516Z,4.00
2018-07-07T02:43:28.764Z,8.00
2018-07-07T02:44:28.997Z,8.00
2018-07-07T02:45:29.236Z,8.00
2018-07-07T02:46:29.476Z,12.00
2018-07-07T02:47:29.715Z,12.00
2018-07-07T02:48:29.953Z,16.00
2018-07-07T02:49:30.194Z,16.00
2018-07-07T02:50:30.433Z,16.00
2018-07-07T02:51:30.672Z,24.00
2018-07-07T02:52:30.912Z,20.00
2018-07-07T02:53:31.157Z,28.00
2018-07-07T02:54:31.393Z,28.00
2018-07-07T02:55:31.633Z,32.00
2018-07-07T02:56:31.871Z,40.00
2018-07-07T02:57:32.108Z,48.00
2018-07-07T02:58:32.351Z,52.00
2018-07-07T02:59:32.588Z,60.00
2018-07-07T03:00:32.828Z,68.00
2018-07-07T03:01:33.068Z,72.00
2018-07-07T03:02:33.305Z,80.00
2018-07-07T03:03:33.546Z,92.00
2018-07-07T03:04:33.786Z,100.00
2018-07-07T03:05:34.022Z,112.00
2018-07-07T03:06:34.262Z,124.00
2018-07-07T03:07:34.500Z,136.00
2018-07-07T03:08:34.742Z,152.00
2018-07-07T03:09:34.981Z,168.00
2018-07-07T03:10:35.218Z,184.00
2018-07-07T03:11:35.456Z,204.00
2018-07-07T03:12:35.697Z,220.00
2018-07-07T03:13:35.941Z,236.00
2018-07-07T03:14:36.178Z,256.00
2018-07-07T03:15:36.416Z,276.00
2018-07-07T03:16:36.656Z,292.00
2018-07-07T03:17:36.894Z,312.00
2018-07-07T03:18:37.134Z,332.00
2018-07-07T03:19:37.372Z,356.00
2018-07-07T03:20:37.612Z,384.00
2018-07-07T03:21:37.853Z,408.00
2018-07-07T03:22:38.089Z,432.00
2018-07-07T03:23:38.331Z,452.00
2018-07-07T03:24:38.567Z,468.00
2018-07-07T03:25:38.809Z,496.00
2018-07-07T03:26:39.046Z,524.00
2018-07-07T03:27:39.285Z,560.00
2018-07-07T03:28:39.524Z,600.00
2018-07-07T03:29:39.763Z,636.00
2018-07-07T03:30:40.002Z,672.00
2018-07-07T03:31:40.244Z,708.00
2018-07-07T03:32:40.481Z,760.00
2018-07-07T03:33:40.718Z,808.00
2018-07-07T03:34:40.958Z,856.00
2018-07-07T03:35:41.196Z,912.00
2018-07-07T03:36:41.436Z,964.00
2018-07-07T03:37:41.674Z,996.00
2018-07-07T03:38:41.911Z,1020.00
2018-07-07T03:39:42.150Z,1028.00
2018-07-07T03:40:42.389Z,1016.00
2018-07-07T03:41:42.627Z,1012.00
2018-07-07T03:42:42.866Z,1028.00
2018-07-07T03:43:43.107Z,1040.00
2018-07-07T03:44:43.346Z,1048.00
2018-07-07T03:45:43.584Z,1052.00
2018-07-07T03:46:43.826Z,1056.00
2018-07-07T03:47:44.065Z,1076.00
2018-07-07T03:48:44.304Z,1084.00
2018-07-07T03:49:44.540Z,1108.00
2018-07-07T03:50:44.781Z,1124.00
2018-07-07T03:51:45.027Z,1152.00
2018-07-07T03:52:45.261Z,1176.00
2018-07-07T03:53:45.496Z,1192.00
2018-07-07T03:54:45.741Z,1212.00
2018-07-07T03:55:45.975Z,1252.00
2018-07-07T03:56:46.213Z,1264.00
2018-07-07T03:57:46.453Z,1268.00
2018-07-07T03:58:46.702Z,1276.00
2018-07-07T03:59:46.931Z,1296.00
2018-07-07T04:00:47.169Z,1304.00
2018-07-07T04:01:47.409Z,1328.00
2018-07-07T04:02:47.648Z,1352.00
2018-07-07T04:03:47.886Z,1372.00
2018-07-07T04:04:48.127Z,1368.00
2018-07-07T04:05:48.367Z,1364.00
2018-07-07T04:06:48.607Z,1372.00
2018-07-07T04:07:48.847Z,1388.00
2018-07-07T04:08:49.085Z,1396.00
2018-07-07T04:09:49.327Z,1412.00
2018-07-07T04:10:49.565Z,1464.00
2018-07-07T04:11:49.804Z,1540.00
2018-07-07T04:12:50.045Z,1624.00
2018-07-07T04:13:50.284Z,1684.00
2018-07-07T04:14:50.523Z,1756.00
2018-07-07T04:15:50.762Z,1844.00
2018-07-07T04:16:51.002Z,1928.00
2018-07-07T04:17:51.240Z,2016.00
2018-07-07T04:18:51.483Z,2088.00
2018-07-07T04:19:51.721Z,2144.00
2018-07-07T04:20:51.966Z,2176.00
2018-07-07T04:21:52.201Z,2216.00
2018-07-07T04:22:52.442Z,2292.00
2018-07-07T04:23:52.681Z,2400.00
2018-07-07T04:24:52.925Z,2536.00
2018-07-07T04:25:53.162Z,2704.00
2018-07-07T04:26:53.402Z,2868.00
2018-07-07T04:27:53.643Z,3056.00
2018-07-07T04:28:53.885Z,3248.00
2018-07-07T04:29:54.127Z,3404.00
2018-07-07T04:30:54.365Z,3548.00
2018-07-07T04:31:54.608Z,3596.00
2018-07-07T04:32:54.852Z,3556.00
2018-07-07T04:33:55.094Z,3496.00
2018-07-07T04:34:55.335Z,3492.00
2018-07-07T04:35:55.582Z,3572.00
2018-07-07T04:36:55.817Z,3652.00
2018-07-07T04:37:56.058Z,3696.00
2018-07-07T04:38:56.300Z,3728.00
2018-07-07T04:39:56.539Z,3708.00
2018-07-07T04:40:56.782Z,3712.00
2018-07-07T04:41:57.023Z,3828.00
2018-07-07T04:42:57.266Z,3948.00
2018-07-07T04:43:57.504Z,4068.00
2018-07-07T04:44:57.744Z,4176.00
2018-07-07T04:45:58.032Z,4320.00
2018-07-07T04:46:58.226Z,4480.00
2018-07-07T04:47:58.471Z,4620.00
2018-07-07T04:48:58.709Z,4724.00
2018-07-07T04:49:58.949Z,4748.00
2018-07-07T04:50:59.190Z,4792.00
2018-07-07T04:51:59.432Z,4860.00
2018-07-07T04:52:59.675Z,5020.00
2018-07-07T04:53:59.917Z,5416.00
2018-07-07T04:55:00.163Z,5624.00
2018-07-07T04:56:00.402Z,5876.00
2018-07-07T04:57:00.646Z,6196.00
2018-07-07T04:58:00.888Z,5880.00
2018-07-07T04:59:01.130Z,5816.00
2018-07-07T05:00:01.375Z,6056.00
2018-07-07T05:01:01.620Z,6336.00
2018-07-07T05:02:01.861Z,6484.00
2018-07-07T05:03:02.103Z,6604.00
2018-07-07T05:04:02.349Z,6756.00
2018-07-07T05:05:02.590Z,6928.00
2018-07-07T05:06:02.833Z,7016.00
2018-07-07T05:07:03.075Z,7104.00
2018-07-07T05:08:03.319Z,7216.00
2018-07-07T05:09:03.558Z,7440.00
2018-07-07T05:10:03.800Z,7764.00
2018-07-07T05:11:04.044Z,8120.00
2018-07-07T05:12:04.286Z,8704.00
2018-07-07T05:13:04.531Z,8556.00
2018-07-07T05:14:04.771Z,8540.00
2018-07-07T05:15:05.012Z,8332.00
2018-07-07T05:16:05.254Z,7644.00
2018-07-07T05:17:05.496Z,6984.00
2018-07-07T05:18:05.740Z,6408.00
2018-07-07T05:19:05.984Z,6024.00
2018-07-07T05:20:06.232Z,5892.00
2018-07-07T05:21:06.471Z,5896.00
2018-07-07T05:22:06.714Z,5896.00
2018-07-07T05:23:06.956Z,5640.00
2018-07-07T05:24:07.199Z,5280.00
2018-07-07T05:25:07.441Z,4968.00
2018-07-07T05:26:07.684Z,4748.00
2018-07-07T05:27:07.927Z,4672.00
2018-07-07T05:28:08.172Z,4612.00
2018-07-07T05:29:08.416Z,4608.00
2018-07-07T05:30:08.659Z,4700.00
2018-07-07T05:31:08.903Z,4860.00
2018-07-07T05:32:09.227Z,5052.00
2018-07-07T05:33:09.392Z,5376.00
2018-07-07T05:34:09.638Z,5760.00
2018-07-07T05:35:09.880Z,6128.00
2018-07-07T05:36:10.124Z,6488.00
2018-07-07T05:37:10.406Z,6788.00
2018-07-07T05:38:10.613Z,7768.00
2018-07-07T05:39:10.856Z,8528.00
2018-07-07T05:40:11.099Z,9300.00
2018-07-07T05:41:11.344Z,9528.00
2018-07-07T05:42:11.588Z,9948.00
2018-07-07T05:43:11.830Z,10060.00
2018-07-07T05:44:12.075Z,10720.00
2018-07-07T05:45:12.321Z,11248.00
2018-07-07T05:46:12.561Z,11544.00
2018-07-07T05:47:12.805Z,11708.00
2018-07-07T05:48:13.054Z,11724.00
2018-07-07T05:49:13.296Z,11680.00
2018-07-07T05:50:13.540Z,11600.00
2018-07-07T05:51:13.787Z,11524.00
2018-07-07T05:52:14.030Z,11424.00
2018-07-07T05:53:14.276Z,11348.00
2018-07-07T05:54:14.521Z,11348.00
2018-07-07T05:55:14.767Z,11436.00
2018-07-07T05:56:15.018Z,11620.00
2018-07-07T05:57:15.301Z,11716.00
2018-07-07T05:58:15.506Z,11716.00
2018-07-07T05:59:15.753Z,11816.00
2018-07-07T06:00:15.997Z,11788.00
2018-07-07T06:01:16.242Z,11932.00
2018-07-07T06:02:16.488Z,11876.00
2018-07-07T06:03:16.732Z,11896.00
2018-07-07T06:04:16.977Z,11904.00
2018-07-07T06:05:17.224Z,11932.00
2018-07-07T06:06:17.469Z,11824.00
2018-07-07T06:07:17.716Z,11776.00
2018-07-07T06:08:17.960Z,11700.00
2018-07-07T06:09:18.208Z,11576.00
2018-07-07T06:10:18.454Z,11428.00
2018-07-07T06:11:18.698Z,11280.00
2018-07-07T06:12:18.946Z,11048.00
2018-07-07T06:13:19.192Z,10948.00
2018-07-07T06:14:19.448Z,11004.00
2018-07-07T06:15:19.687Z,10996.00
2018-07-07T06:16:19.929Z,10732.00
2018-07-07T06:17:20.177Z,9808.00
2018-07-07T06:18:20.467Z,9412.00
2018-07-07T06:19:20.668Z,9216.00
2018-07-07T06:20:20.916Z,9060.00
2018-07-07T06:21:21.161Z,8900.00
2018-07-07T06:22:21.407Z,8900.00
2018-07-07T06:23:21.657Z,9136.00
2018-07-07T06:24:21.903Z,9564.00
2018-07-07T06:25:22.146Z,10328.00
2018-07-07T06:26:22.437Z,11504.00
2018-07-07T06:27:22.637Z,12460.00
2018-07-07T06:28:22.886Z,13200.00
2018-07-07T06:29:23.131Z,13884.00
2018-07-07T06:30:23.378Z,14284.00
2018-07-07T06:31:23.624Z,14368.00
2018-07-07T06:32:23.871Z,14480.00
2018-07-07T06:33:24.120Z,14968.00
2018-07-07T06:34:24.365Z,15196.00
2018-07-07T06:35:24.612Z,14808.00
2018-07-07T06:36:24.858Z,13856.00
2018-07-07T06:37:25.188Z,12984.00
2018-07-07T06:38:25.353Z,12512.00
2018-07-07T06:39:25.600Z,12224.00
2018-07-07T06:40:25.847Z,12116.00
2018-07-07T06:41:26.092Z,12368.00
2018-07-07T06:42:26.341Z,12620.00
2018-07-07T06:43:26.586Z,12792.00
2018-07-07T06:44:26.832Z,12756.00
2018-07-07T06:45:27.080Z,12664.00
2018-07-07T06:46:27.328Z,12200.00
2018-07-07T06:47:27.576Z,11808.00
2018-07-07T06:48:27.824Z,11760.00
2018-07-07T06:49:28.072Z,11932.00
2018-07-07T06:50:28.316Z,12172.00
2018-07-07T06:51:28.562Z,12420.00
2018-07-07T06:52:28.810Z,12500.00
2018-07-07T06:53:29.055Z,12468.00
2018-07-07T06:54:29.305Z,12424.00
2018-07-07T06:55:29.551Z,12348.00
2018-07-07T06:56:29.797Z,12524.00
2018-07-07T06:57:30.046Z,12756.00
2018-07-07T06:58:30.290Z,12412.00
2018-07-07T06:59:30.572Z,12144.00
2018-07-07T07:00:30.784Z,12196.00
2018-07-07T07:01:31.030Z,12404.00
2018-07-07T07:02:31.277Z,12536.00
2018-07-07T07:03:31.539Z,12728.00
2018-07-07T07:04:31.774Z,13016.00
2018-07-07T07:05:32.023Z,13460.00
2018-07-07T07:06:32.327Z,14192.00
2018-07-07T07:07:32.516Z,15116.00
2018-07-07T07:08:32.765Z,16028.00
2018-07-07T07:09:33.010Z,16344.00
2018-07-07T07:10:33.258Z,16480.00
2018-07-07T07:11:33.505Z,16428.00
2018-07-07T07:12:33.751Z,16056.00
2018-07-07T07:13:34.000Z,15572.00
2018-07-07T07:14:34.248Z,15152.00
2018-07-07T07:15:34.495Z,14764.00
2018-07-07T07:16:34.737Z,14416.00
2018-07-07T07:17:34.987Z,13892.00
2018-07-07T07:18:35.234Z,13096.00
2018-07-07T07:19:35.483Z,12692.00
2018-07-07T07:20:35.732Z,12116.00
2018-07-07T07:21:35.982Z,11600.00
2018-07-07T07:22:36.229Z,11172.00
2018-07-07T07:23:36.477Z,10932.00
2018-07-07T07:24:36.729Z,11488.00
2018-07-07T07:25:36.971Z,12144.00
2018-07-07T07:26:37.216Z,12536.00
2018-07-07T07:27:37.464Z,12980.00
2018-07-07T07:28:37.714Z,12984.00
2018-07-07T07:29:37.960Z,13412.00
2018-07-07T07:30:38.207Z,13164.00
2018-07-07T07:31:38.458Z,12924.00
2018-07-07T07:32:38.703Z,12660.00
2018-07-07T07:33:38.952Z,12584.00
2018-07-07T07:34:39.198Z,12524.00
2018-07-07T07:35:39.447Z,12472.00
2018-07-07T07:36:39.695Z,12488.00
2018-07-07T07:37:39.944Z,12572.00
2018-07-07T07:38:40.193Z,12552.00
2018-07-07T07:39:40.441Z,12400.00
2018-07-07T07:40:40.689Z,12464.00
2018-07-07T07:41:40.938Z,12724.00
2018-07-07T07:42:41.189Z,12768.00
2018-07-07T07:43:41.441Z,12396.00
2018-07-07T07:44:41.688Z,12124.00
2018-07-07T07:45:41.938Z,12064.00
2018-07-07T07:46:42.189Z,12148.00
2018-07-07T07:47:42.436Z,12264.00
2018-07-07T07:48:42.687Z,12204.00
2018-07-07T07:49:42.938Z,11968.00
2018-07-07T07:50:43.189Z,11964.00
2018-07-07T07:51:43.439Z,11960.00
2018-07-07T07:52:43.691Z,11956.00
2018-07-07T07:53:43.939Z,12000.00
2018-07-07T07:54:44.192Z,11900.00
2018-07-07T07:55:44.442Z,11900.00
2018-07-07T07:56:44.694Z,11968.00
2018-07-07T07:57:44.946Z,12036.00
2018-07-07T07:58:45.197Z,12164.00
2018-07-07T07:59:45.447Z,12272.00
2018-07-07T08:00:45.698Z,12220.00
2018-07-07T08:01:45.948Z,12192.00
2018-07-07T08:02:46.205Z,12324.00
2018-07-07T08:03:46.455Z,12448.00
2018-07-07T08:04:46.715Z,12448.00
2018-07-07T08:05:46.955Z,12516.00
2018-07-07T08:06:47.208Z,12692.00
2018-07-07T08:07:47.462Z,12748.00
2018-07-07T08:08:47.712Z,12548.00
2018-07-07T08:09:47.963Z,13000.00
2018-07-07T08:10:48.216Z,13464.00
2018-07-07T08:11:48.469Z,13280.00
2018-07-07T08:12:48.720Z,13076.00
2018-07-07T08:13:48.971Z,13056.00
2018-07-07T08:14:49.227Z,13040.00
2018-07-07T08:15:49.476Z,13048.00
2018-07-07T08:16:49.728Z,13480.00
2018-07-07T08:17:49.980Z,14260.00
2018-07-07T08:18:50.229Z,14392.00
2018-07-07T08:19:50.483Z,14768.00
2018-07-07T08:20:50.735Z,14736.00
2018-07-07T08:21:50.989Z,14804.00
2018-07-07T08:22:51.290Z,15072.00
2018-07-07T08:23:51.488Z,15356.00
2018-07-07T08:24:51.743Z,15748.00
2018-07-07T08:25:51.997Z,15892.00
2018-07-07T08:26:52.247Z,15372.00
2018-07-07T08:27:52.497Z,14000.00
2018-07-07T08:28:52.749Z,13880.00
2018-07-07T08:29:53.002Z,14056.00
2018-07-07T08:30:53.253Z,13764.00
2018-07-07T08:31:53.510Z,13508.00
2018-07-07T08:32:53.759Z,13120.00
2018-07-07T08:33:54.010Z,13612.00
2018-07-07T08:34:54.263Z,13940.00
2018-07-07T08:35:54.515Z,14168.00
2018-07-07T08:36:54.767Z,14320.00
2018-07-07T08:37:55.018Z,16392.00
2018-07-07T08:38:55.271Z,19040.00
2018-07-07T08:39:55.527Z,21440.00
2018-07-07T08:40:55.778Z,23424.00
2018-07-07T08:41:56.099Z,25056.00
2018-07-07T08:42:56.284Z,23872.00
2018-07-07T08:43:56.537Z,25184.00
2018-07-07T08:44:56.788Z,26496.00
2018-07-07T08:45:57.028Z,27232.00
2018-07-07T08:46:57.300Z,28672.00
2018-07-07T08:47:57.553Z,30688.00
2018-07-07T08:48:57.807Z,30656.00
2018-07-07T08:49:58.061Z,29472.00
2018-07-07T08:50:58.317Z,29408.00
2018-07-07T08:51:58.572Z,30208.00
2018-07-07T08:52:58.823Z,31520.00
2018-07-07T08:53:59.076Z,32704.00
2018-07-07T08:54:59.329Z,32896.00
2018-07-07T08:55:59.582Z,31744.00
2018-07-07T08:56:59.836Z,32288.00
2018-07-07T08:58:00.090Z,34240.00
2018-07-07T08:59:00.345Z,36320.00
2018-07-07T09:00:00.597Z,37344.00
2018-07-07T09:01:00.851Z,36864.00
2018-07-07T09:02:01.106Z,36320.00
2018-07-07T09:03:01.359Z,36352.00
2018-07-07T09:04:01.613Z,38048.00
2018-07-07T09:05:01.869Z,38816.00
2018-07-07T09:06:02.123Z,39680.00
2018-07-07T09:07:02.374Z,41056.00
2018-07-07T09:08:02.629Z,40544.00
2018-07-07T09:09:02.885Z,40544.00
2018-07-07T09:10:03.144Z,39328.00
2018-07-07T09:11:03.392Z,39200.00
2018-07-07T09:12:03.647Z,40384.00
2018-07-07T09:13:03.901Z,40672.00
2018-07-07T09:14:04.153Z,39968.00
2018-07-07T09:15:04.409Z,38272.00
2018-07-07T09:16:04.660Z,38688.00
2018-07-07T09:17:04.917Z,40896.00
2018-07-07T09:18:05.166Z,43136.00
2018-07-07T09:19:05.420Z,43552.00
2018-07-07T09:20:05.673Z,44640.00
2018-07-07T09:21:05.926Z,42816.00
2018-07-07T09:22:06.182Z,42400.00
2018-07-07T09:23:06.436Z,42208.00
2018-07-07T09:24:06.691Z,40480.00
2018-07-07T09:25:06.947Z,41312.00
2018-07-07T09:26:07.198Z,41888.00
2018-07-07T09:27:07.450Z,44992.00
2018-07-07T09:28:07.706Z,47680.00
2018-07-07T09:29:07.959Z,48064.00
2018-07-07T09:30:08.212Z,49216.00
2018-07-07T09:31:08.469Z,49248.00
2018-07-07T09:32:08.721Z,51040.00
2018-07-07T09:33:08.978Z,52224.00
2018-07-07T09:34:09.231Z,51744.00
2018-07-07T09:35:09.483Z,51296.00
2018-07-07T09:36:09.738Z,51456.00
2018-07-07T09:37:09.993Z,51968.00
2018-07-07T09:38:10.244Z,48608.00
2018-07-07T09:39:10.498Z,49152.00
2018-07-07T09:40:10.756Z,49344.00
2018-07-07T09:41:11.011Z,48704.00
2018-07-07T09:42:11.264Z,47840.00
2018-07-07T09:43:11.519Z,44640.00
2018-07-07T09:44:11.813Z,43936.00
2018-07-07T09:45:12.028Z,44800.00
2018-07-07T09:46:12.284Z,45568.00
2018-07-07T09:47:12.539Z,47168.00
2018-07-07T09:48:12.794Z,50592.00
2018-07-07T09:49:13.052Z,52832.00
2018-07-07T09:50:13.304Z,52064.00
2018-07-07T09:51:13.559Z,52416.00
2018-07-07T09:52:13.812Z,52096.00
2018-07-07T09:53:14.066Z,53888.00
2018-07-07T09:54:14.319Z,56640.00
2018-07-07T09:55:14.579Z,58272.00
2018-07-07T09:56:14.844Z,60576.00
2018-07-07T09:57:15.083Z,61664.00
2018-07-07T09:58:15.339Z,63328.00
2018-07-07T09:59:15.597Z,63360.00
2018-07-07T10:00:15.853Z,60736.00
2018-07-07T10:01:16.107Z,59392.00
2018-07-07T10:02:16.363Z,59264.00
2018-07-07T10:03:16.619Z,59968.00
2018-07-07T10:04:16.874Z,61088.00
2018-07-07T10:05:17.127Z,60256.00
2018-07-07T10:06:17.383Z,58432.00
2018-07-07T10:07:17.637Z,62304.00
2018-07-07T10:08:17.891Z,65216.00
2018-07-07T10:09:18.147Z,65088.00
2018-07-07T10:10:18.404Z,63008.00
2018-07-07T10:11:18.659Z,63552.00
2018-07-07T10:12:18.918Z,64320.00
2018-07-07T10:13:19.173Z,67616.00
2018-07-07T10:14:19.427Z,68128.00
2018-07-07T10:15:19.681Z,65696.00
2018-07-07T10:16:19.938Z,67840.00
2018-07-07T10:17:20.192Z,68704.00
2018-07-07T10:18:20.450Z,65664.00
2018-07-07T10:19:20.706Z,65440.00
2018-07-07T10:20:20.964Z,66016.00
2018-07-07T10:21:21.223Z,65792.00
2018-07-07T10:22:21.482Z,66944.00
2018-07-07T10:23:21.738Z,66304.00
2018-07-07T10:24:21.997Z,65344.00
2018-07-07T10:25:22.253Z,65952.00
2018-07-07T10:26:22.574Z,65824.00
2018-07-07T10:27:22.770Z,66112.00
2018-07-07T10:28:23.026Z,70400.00
2018-07-07T10:29:23.276Z,74272.00
2018-07-07T10:30:23.539Z,75776.00
2018-07-07T10:31:23.786Z,76320.00
2018-07-07T10:32:24.044Z,75616.00
2018-07-07T10:33:24.301Z,74624.00
2018-07-07T10:34:24.557Z,72736.00
2018-07-07T10:35:24.812Z,74912.00
2018-07-07T10:36:25.070Z,78624.00
2018-07-07T10:37:25.343Z,76800.00
2018-07-07T10:38:25.585Z,75712.00
2018-07-07T10:39:25.842Z,75776.00
2018-07-07T10:40:26.098Z,74848.00
2018-07-07T10:41:26.357Z,76256.00
2018-07-07T10:42:26.613Z,75584.00
2018-07-07T10:43:26.868Z,74016.00
2018-07-07T10:44:27.125Z,74272.00
2018-07-07T10:45:27.428Z,72384.00
2018-07-07T10:46:27.641Z,73472.00
2018-07-07T10:47:27.943Z,72416.00
2018-07-07T10:48:28.155Z,70080.00
2018-07-07T10:49:28.410Z,70720.00
2018-07-07T10:50:28.666Z,71648.00
2018-07-07T10:51:28.923Z,71104.00
2018-07-07T10:52:29.201Z,73792.00
2018-07-07T10:53:29.457Z,71520.00
2018-07-07T10:54:29.715Z,67904.00
2018-07-07T10:55:29.976Z,71936.00
2018-07-07T10:56:30.226Z,72544.00
2018-07-07T10:57:30.481Z,65856.00
2018-07-07T10:58:30.738Z,64928.00
2018-07-07T10:59:30.994Z,70848.00
2018-07-07T11:00:31.251Z,73856.00
2018-07-07T11:01:31.506Z,73024.00
2018-07-07T11:02:31.785Z,73600.00
2018-07-07T11:03:32.017Z,75072.00
2018-07-07T11:04:32.273Z,78208.00
2018-07-07T11:05:32.529Z,77760.00
2018-07-07T11:06:32.786Z,75328.00
2018-07-07T11:07:33.041Z,73728.00
2018-07-07T11:08:33.299Z,74368.00
2018-07-07T11:09:33.555Z,76576.00
2018-07-07T11:10:33.812Z,78176.00
2018-07-07T11:11:34.069Z,75424.00
2018-07-07T11:12:34.326Z,70784.00
2018-07-07T11:13:34.588Z,72768.00
2018-07-07T11:14:34.839Z,77856.00
2018-07-07T11:15:35.095Z,75328.00
2018-07-07T11:16:35.351Z,70272.00
2018-07-07T11:17:35.607Z,69792.00
2018-07-07T11:18:35.862Z,71040.00
2018-07-07T11:19:36.118Z,73440.00
2018-07-07T11:20:36.373Z,74560.00
2018-07-07T11:21:36.636Z,73376.00
2018-07-07T11:22:36.886Z,70240.00
2018-07-07T11:23:37.149Z,69344.00
2018-07-07T11:24:37.406Z,70560.00
2018-07-07T11:25:37.664Z,74272.00
2018-07-07T11:26:37.919Z,78816.00
2018-07-07T11:27:38.174Z,78560.00
2018-07-07T11:28:38.432Z,76032.00
2018-07-07T11:29:38.687Z,73216.00
2018-07-07T11:30:38.945Z,72576.00
2018-07-07T11:31:39.202Z,73728.00
2018-07-07T11:32:39.460Z,75200.00
2018-07-07T11:33:39.716Z,74560.00
2018-07-07T11:34:39.971Z,74720.00
2018-07-07T11:35:40.225Z,74624.00
2018-07-07T11:36:40.672Z,71680.00
2018-07-07T11:37:40.738Z,72192.00
2018-07-07T11:38:40.997Z,78048.00
2018-07-07T11:39:41.246Z,78272.00
2018-07-07T11:40:41.504Z,75072.00
2018-07-07T11:41:41.760Z,72992.00
2018-07-07T11:42:42.021Z,69728.00
2018-07-07T11:43:42.273Z,70624.00
2018-07-07T11:44:42.529Z,75968.00
2018-07-07T11:45:42.785Z,79168.00
2018-07-07T11:46:43.043Z,78976.00
2018-07-07T11:47:43.297Z,78048.00
2018-07-07T11:48:43.556Z,76704.00
2018-07-07T11:49:43.808Z,72448.00
2018-07-07T11:50:44.069Z,74080.00
2018-07-07T11:51:44.324Z,80736.00
2018-07-07T11:52:44.583Z,81280.00
2018-07-07T11:53:44.837Z,75232.00
2018-07-07T11:54:45.091Z,75872.00
2018-07-07T11:55:45.346Z,81664.00
2018-07-07T11:56:45.603Z,85728.00
2018-07-07T11:57:45.861Z,86016.00
2018-07-07T11:58:46.116Z,85248.00
2018-07-07T11:59:46.371Z,82016.00
2018-07-07T12:00:46.627Z,82784.00
2018-07-07T12:01:46.887Z,87104.00
2018-07-07T12:02:47.141Z,84960.00
2018-07-07T12:03:47.397Z,80448.00
2018-07-07T12:04:47.699Z,82240.00
2018-07-07T12:05:47.908Z,83328.00
2018-07-07T12:06:48.165Z,81952.00
2018-07-07T12:07:48.423Z,81312.00
2018-07-07T12:08:48.677Z,81184.00
2018-07-07T12:09:48.935Z,82112.00
2018-07-07T12:10:49.193Z,85792.00
2018-07-07T12:11:49.446Z,86336.00
2018-07-07T12:12:49.704Z,82880.00
2018-07-07T12:13:49.959Z,83360.00
2018-07-07T12:14:50.213Z,86400.00